SAS31A ESGG-ESSA
Flight info
| Callsign | SAS31A |
|---|---|
| Flight time | 0h 41m |
| Altitude | 29000 |
| Route | LABAN N873 ARS T317 ELTOK |
| Aircraft | A320/M-SDE3FGHIRWY/LB1 |
Departure
| Time | 2026-05-04 16:51 |
|---|---|
| Airport | Göteborg Landvetter Airport (ESGG) |
Arrival
| Time | 2026-05-04 17:32 |
|---|---|
| Airport | Stockholm-Arlanda Airport (ESSA) |
| Time | Latitude | Longitude | Altitude | Speed | Heading |
|---|---|---|---|---|---|
| 2026-05-04 16:19 | 57.66422 | 12.29056 | 523 ft | 0 kts | 115° |
| 2026-05-04 16:35 | 57.66422 | 12.29055 | 523 ft | 0 kts | 115° |
| 2026-05-04 16:39 | 57.66445 | 12.28971 | 523 ft | 4 kts | 111° |
| 2026-05-04 16:39 | 57.66446 | 12.28926 | 523 ft | 1 kts | 26° |
| 2026-05-04 16:42 | 57.66448 | 12.28928 | 523 ft | 1 kts | 26° |
| 2026-05-04 16:43 | 57.66490 | 12.28963 | 523 ft | 5 kts | 20° |
| 2026-05-04 16:43 | 57.66579 | 12.28980 | 524 ft | 8 kts | 23° |
| 2026-05-04 16:43 | 57.66621 | 12.28923 | 524 ft | 9 kts | 296° |
| 2026-05-04 16:44 | 57.66653 | 12.28795 | 524 ft | 0 kts | 297° |
| 2026-05-04 16:46 | 57.66653 | 12.28794 | 524 ft | 1 kts | 297° |
| 2026-05-04 16:46 | 57.66688 | 12.28720 | 524 ft | 7 kts | 333° |
| 2026-05-04 16:47 | 57.66791 | 12.28786 | 525 ft | 9 kts | 26° |
| 2026-05-04 16:47 | 57.66923 | 12.28910 | 527 ft | 12 kts | 26° |
| 2026-05-04 16:48 | 57.67168 | 12.29131 | 530 ft | 15 kts | 25° |
| 2026-05-04 16:48 | 57.67265 | 12.29217 | 531 ft | 16 kts | 27° |
| 2026-05-04 16:49 | 57.67461 | 12.29268 | 532 ft | 10 kts | 274° |
| 2026-05-04 16:49 | 57.67411 | 12.29002 | 530 ft | 0 kts | 204° |
| 2026-05-04 16:50 | 57.66950 | 12.28580 | 527 ft | 101 kts | 206° |
| 2026-05-04 16:50 | 57.65195 | 12.26988 | 1042 ft | 154 kts | 210° |
| 2026-05-04 16:51 | 57.63197 | 12.25192 | 2153 ft | 177 kts | 207° |
| 2026-05-04 16:51 | 57.61869 | 12.25119 | 2516 ft | 213 kts | 169° |
| 2026-05-04 16:51 | 57.59001 | 12.27377 | 3952 ft | 229 kts | 161° |
| 2026-05-04 16:52 | 57.56697 | 12.31473 | 5461 ft | 254 kts | 102° |
| 2026-05-04 16:52 | 57.56738 | 12.34874 | 5868 ft | 276 kts | 74° |
| 2026-05-04 16:53 | 57.58217 | 12.41832 | 7213 ft | 297 kts | 61° |
| 2026-05-04 16:53 | 57.61920 | 12.51230 | 9580 ft | 309 kts | 39° |
| 2026-05-04 16:54 | 57.63447 | 12.54123 | 10188 ft | 322 kts | 39° |
| 2026-05-04 16:55 | 57.70307 | 12.67158 | 12402 ft | 366 kts | 40° |
| 2026-05-04 16:55 | 57.73904 | 12.74086 | 13799 ft | 376 kts | 40° |
| 2026-05-04 16:56 | 57.77586 | 12.81197 | 15098 ft | 383 kts | 40° |
| 2026-05-04 16:56 | 57.83210 | 12.92100 | 17055 ft | 393 kts | 40° |
| 2026-05-04 16:57 | 57.85117 | 12.95804 | 17681 ft | 396 kts | 40° |
| 2026-05-04 16:57 | 57.88956 | 13.03266 | 18853 ft | 404 kts | 40° |
| 2026-05-04 16:58 | 57.94879 | 13.14826 | 20564 ft | 414 kts | 40° |
| 2026-05-04 16:58 | 57.96885 | 13.18763 | 21116 ft | 418 kts | 40° |
| 2026-05-04 16:59 | 58.00942 | 13.26735 | 22181 ft | 425 kts | 40° |
| 2026-05-04 17:00 | 58.09253 | 13.43143 | 24185 ft | 439 kts | 41° |
| 2026-05-04 17:00 | 58.15615 | 13.55825 | 25494 ft | 447 kts | 41° |
| 2026-05-04 17:01 | 58.19916 | 13.64408 | 26354 ft | 452 kts | 41° |
| 2026-05-04 17:01 | 58.24259 | 13.73105 | 27189 ft | 456 kts | 42° |
| 2026-05-04 17:02 | 58.28629 | 13.81908 | 28047 ft | 460 kts | 42° |
| 2026-05-04 17:02 | 58.33046 | 13.90851 | 28714 ft | 467 kts | 42° |
| 2026-05-04 17:03 | 58.35260 | 13.95345 | 28792 ft | 458 kts | 42° |
| 2026-05-04 17:03 | 58.41641 | 14.08359 | 28779 ft | 444 kts | 42° |
| 2026-05-04 17:04 | 58.50073 | 14.25601 | 28783 ft | 444 kts | 42° |
| 2026-05-04 17:05 | 58.58495 | 14.42971 | 28780 ft | 446 kts | 41° |
| 2026-05-04 17:06 | 58.64812 | 14.56102 | 28772 ft | 447 kts | 42° |
| 2026-05-04 17:07 | 58.70406 | 14.67807 | 28770 ft | 446 kts | 42° |
| 2026-05-04 17:07 | 58.75309 | 14.78090 | 28812 ft | 446 kts | 42° |
| 2026-05-04 17:08 | 58.81584 | 14.91331 | 28740 ft | 446 kts | 42° |
| 2026-05-04 17:09 | 58.85761 | 15.00192 | 28733 ft | 447 kts | 42° |
| 2026-05-04 17:09 | 58.89940 | 15.09087 | 28734 ft | 447 kts | 42° |
| 2026-05-04 17:10 | 59.00389 | 15.31466 | 28740 ft | 449 kts | 41° |
| 2026-05-04 17:11 | 59.04564 | 15.40467 | 28715 ft | 449 kts | 41° |
| 2026-05-04 17:11 | 59.08717 | 15.49461 | 27820 ft | 444 kts | 41° |
| 2026-05-04 17:12 | 59.10772 | 15.53930 | 27356 ft | 441 kts | 42° |
| 2026-05-04 17:12 | 59.14140 | 15.61322 | 26491 ft | 441 kts | 45° |
| 2026-05-04 17:13 | 59.19226 | 15.76835 | 24595 ft | 452 kts | 54° |
| 2026-05-04 17:14 | 59.24009 | 15.92229 | 22943 ft | 429 kts | 54° |
| 2026-05-04 17:14 | 59.25537 | 15.97133 | 22441 ft | 416 kts | 54° |
| 2026-05-04 17:14 | 59.28481 | 16.06514 | 21474 ft | 398 kts | 53° |
| 2026-05-04 17:15 | 59.29921 | 16.11091 | 20988 ft | 393 kts | 53° |
| 2026-05-04 17:15 | 59.32736 | 16.20120 | 20047 ft | 384 kts | 54° |
| 2026-05-04 17:16 | 59.35483 | 16.28984 | 19123 ft | 377 kts | 54° |
| 2026-05-04 17:16 | 59.39500 | 16.42029 | 17705 ft | 367 kts | 54° |
| 2026-05-04 17:17 | 59.40809 | 16.46298 | 17254 ft | 362 kts | 55° |
| 2026-05-04 17:17 | 59.44723 | 16.59064 | 15912 ft | 365 kts | 55° |
| 2026-05-04 17:18 | 59.46029 | 16.63343 | 15472 ft | 365 kts | 55° |
| 2026-05-04 17:18 | 59.48638 | 16.71917 | 14561 ft | 365 kts | 56° |
| 2026-05-04 17:19 | 59.51221 | 16.80446 | 13664 ft | 365 kts | 56° |
| 2026-05-04 17:19 | 59.53802 | 16.89007 | 12695 ft | 362 kts | 56° |
| 2026-05-04 17:20 | 59.56353 | 16.97474 | 11799 ft | 356 kts | 56° |
| 2026-05-04 17:20 | 59.58808 | 17.05684 | 10924 ft | 334 kts | 57° |
| 2026-05-04 17:20 | 59.59957 | 17.09546 | 10529 ft | 320 kts | 57° |
| 2026-05-04 17:21 | 59.62170 | 17.16978 | 9735 ft | 311 kts | 57° |
| 2026-05-04 17:21 | 59.64363 | 17.24310 | 8996 ft | 309 kts | 57° |
| 2026-05-04 17:22 | 59.65453 | 17.27983 | 8589 ft | 309 kts | 57° |
| 2026-05-04 17:22 | 59.66541 | 17.31648 | 8193 ft | 309 kts | 57° |
| 2026-05-04 17:23 | 59.69711 | 17.42387 | 7022 ft | 296 kts | 56° |
| 2026-05-04 17:23 | 59.70736 | 17.45911 | 6634 ft | 294 kts | 57° |
| 2026-05-04 17:23 | 59.72775 | 17.52952 | 5880 ft | 295 kts | 57° |
| 2026-05-04 17:24 | 59.73793 | 17.56487 | 5487 ft | 295 kts | 57° |
| 2026-05-04 17:24 | 59.76835 | 17.67056 | 4373 ft | 286 kts | 57° |
| 2026-05-04 17:25 | 59.77780 | 17.70399 | 4097 ft | 271 kts | 57° |
| 2026-05-04 17:25 | 59.79548 | 17.76642 | 3593 ft | 253 kts | 57° |
| 2026-05-04 17:26 | 59.81194 | 17.82480 | 3053 ft | 234 kts | 57° |
| 2026-05-04 17:26 | 59.82384 | 17.91471 | 2460 ft | 221 kts | 96° |
| 2026-05-04 17:27 | 59.81863 | 17.97379 | 2457 ft | 215 kts | 122° |
| 2026-05-04 17:27 | 59.79631 | 18.00461 | 2497 ft | 182 kts | 170° |
| 2026-05-04 17:28 | 59.77494 | 18.00490 | 2466 ft | 140 kts | 201° |
| 2026-05-04 17:29 | 59.74735 | 17.99479 | 2123 ft | 132 kts | 200° |
| 2026-05-04 17:29 | 59.72041 | 17.98494 | 1606 ft | 132 kts | 199° |
| 2026-05-04 17:30 | 59.69306 | 17.97497 | 1052 ft | 132 kts | 198° |
| 2026-05-04 17:31 | 59.67518 | 17.96855 | 736 ft | 131 kts | 194° |
| 2026-05-04 17:31 | 59.64828 | 17.95883 | 204 ft | 131 kts | 195° |
| 2026-05-04 17:32 | 59.63478 | 17.95368 | 144 ft | 35 kts | 195° |